createdAt,value
2023-03-05T00:01:27.247Z,0.77
2023-03-05T00:03:58.352Z,0.74
2023-03-05T00:06:28.536Z,0.75
2023-03-05T00:08:58.515Z,0.75
2023-03-05T00:11:30.238Z,0.75
2023-03-05T00:13:59.478Z,0.74
2023-03-05T00:16:29.069Z,0.74
2023-03-05T00:18:58.720Z,0.69
2023-03-05T00:21:35.180Z,0.66
2023-03-05T00:24:05.014Z,0.67
2023-03-05T00:26:35.453Z,0.66
2023-03-05T00:29:03.705Z,0.64
2023-03-05T00:31:32.445Z,0.61
2023-03-05T00:34:03.490Z,0.58
2023-03-05T00:36:31.651Z,0.56
2023-03-05T00:38:59.399Z,0.56
2023-03-05T00:41:28.378Z,0.53
2023-03-05T00:43:56.304Z,0.54
2023-03-05T00:46:24.648Z,0.54
2023-03-05T00:48:52.526Z,0.56
2023-03-05T00:51:20.838Z,0.56
2023-03-05T00:53:48.464Z,0.56
2023-03-05T00:56:15.998Z,0.54
2023-03-05T00:58:44.030Z,0.53
2023-03-05T01:01:12.297Z,0.50
2023-03-05T01:03:40.335Z,0.48
2023-03-05T01:06:11.682Z,0.50
2023-03-05T01:08:39.974Z,0.46
2023-03-05T01:11:09.111Z,0.46
2023-03-05T01:13:37.627Z,0.46
2023-03-05T01:16:06.146Z,0.44
2023-03-05T01:18:35.105Z,0.42
2023-03-05T01:21:04.027Z,0.40
2023-03-05T01:23:34.539Z,0.34
2023-03-05T01:26:01.979Z,0.34
2023-03-05T01:28:29.398Z,0.34
2023-03-05T01:30:57.050Z,0.35
2023-03-05T01:33:24.852Z,0.28
2023-03-05T01:35:52.967Z,0.24
2023-03-05T01:38:21.645Z,0.24
2023-03-05T01:40:49.067Z,0.22
2023-03-05T01:43:23.567Z,0.15
2023-03-05T01:46:24.090Z,0.12
2023-03-05T01:49:17.675Z,0.04
2023-03-05T01:52:10.160Z,-0.06
2023-03-05T01:54:42.551Z,-0.09
2023-03-05T01:57:24.132Z,-0.13
2023-03-05T02:00:01.020Z,-0.19
2023-03-05T02:02:30.064Z,-0.23
2023-03-05T02:05:03.987Z,-0.23
2023-03-05T02:07:33.783Z,-0.24
2023-03-05T02:10:01.370Z,-0.27
2023-03-05T02:12:31.021Z,-0.26
2023-03-05T02:15:19.000Z,-0.24
2023-03-05T02:17:46.858Z,-0.24
2023-03-05T02:20:26.202Z,-0.22
2023-03-05T02:22:54.851Z,-0.25
2023-03-05T02:25:26.777Z,-0.25
2023-03-05T02:28:03.546Z,-0.23
2023-03-05T02:30:31.577Z,-0.28
2023-03-05T02:32:59.322Z,-0.36
2023-03-05T02:35:27.670Z,-0.35
2023-03-05T02:37:55.691Z,-0.37
2023-03-05T02:40:23.880Z,-0.37
2023-03-05T02:42:52.427Z,-0.42
2023-03-05T02:45:20.326Z,-0.45
2023-03-05T02:47:47.819Z,-0.48
2023-03-05T02:50:16.093Z,-0.51
2023-03-05T02:52:43.659Z,-0.51
2023-03-05T02:55:14.842Z,-0.55
2023-03-05T02:57:43.977Z,-0.59
2023-03-05T03:00:12.091Z,-0.61
2023-03-05T03:02:39.838Z,-0.66
2023-03-05T03:05:08.026Z,-0.71
2023-03-05T03:07:36.681Z,-0.77
2023-03-05T03:10:06.118Z,-0.78
2023-03-05T03:12:38.491Z,-0.84
2023-03-05T03:15:07.474Z,-0.89
2023-03-05T03:17:37.162Z,-0.88
2023-03-05T03:20:08.148Z,-0.89
2023-03-05T03:22:35.689Z,-0.91
2023-03-05T03:25:04.696Z,-0.92
2023-03-05T03:27:32.323Z,-0.96
2023-03-05T03:30:02.960Z,-0.95
2023-03-05T03:32:33.582Z,-0.92
2023-03-05T03:35:01.708Z,-0.90
2023-03-05T03:37:30.922Z,-0.87
2023-03-05T03:39:58.630Z,-0.84
2023-03-05T03:42:26.223Z,-0.81
2023-03-05T03:44:54.044Z,-0.78
2023-03-05T03:47:21.746Z,-0.76
2023-03-05T03:49:49.331Z,-0.75
2023-03-05T03:52:17.449Z,-0.71
2023-03-05T03:54:44.999Z,-0.64
2023-03-05T03:57:12.643Z,-0.65
2023-03-05T03:59:40.081Z,-0.68
2023-03-05T04:02:07.574Z,-0.71
2023-03-05T04:04:35.265Z,-0.75
2023-03-05T04:07:02.771Z,-0.80
2023-03-05T04:09:30.667Z,-0.83
2023-03-05T04:11:58.134Z,-0.83
2023-03-05T04:14:26.741Z,-0.81
2023-03-05T04:16:54.782Z,-0.83
2023-03-05T04:19:22.472Z,-0.79
2023-03-05T04:21:50.416Z,-0.77
2023-03-05T04:24:18.315Z,-0.74
2023-03-05T04:26:45.852Z,-0.71
2023-03-05T04:29:13.324Z,-0.69
2023-03-05T04:31:40.851Z,-0.68
2023-03-05T04:34:08.563Z,-0.64
2023-03-05T04:36:37.129Z,-0.59
2023-03-05T04:39:05.231Z,-0.54
2023-03-05T04:41:32.784Z,-0.54
2023-03-05T04:44:00.438Z,-0.47
2023-03-05T04:46:28.316Z,-0.45
2023-03-05T04:48:57.528Z,-0.42
2023-03-05T04:51:25.103Z,-0.40
2023-03-05T04:53:52.537Z,-0.39
2023-03-05T04:56:20.528Z,-0.37
2023-03-05T04:58:48.444Z,-0.36
2023-03-05T05:01:16.138Z,-0.34
2023-03-05T05:03:44.335Z,-0.33
2023-03-05T05:06:12.157Z,-0.30
2023-03-05T05:08:39.682Z,-0.27
2023-03-05T05:11:08.763Z,-0.20
2023-03-05T05:13:36.605Z,-0.18
2023-03-05T05:16:07.830Z,-0.11
2023-03-05T05:18:36.424Z,0.02
2023-03-05T05:21:09.165Z,0.14
2023-03-05T05:23:38.005Z,0.22
2023-03-05T05:26:08.020Z,0.27
2023-03-05T05:28:36.278Z,0.31
2023-03-05T05:31:08.418Z,0.42
2023-03-05T05:33:36.726Z,0.39
2023-03-05T05:36:09.336Z,0.42
2023-03-05T05:38:37.263Z,0.49
2023-03-05T05:41:12.367Z,0.53
2023-03-05T05:43:41.560Z,0.50
2023-03-05T05:46:13.029Z,0.47
2023-03-05T05:48:41.297Z,0.44
2023-03-05T05:51:11.477Z,0.42
2023-03-05T05:53:39.590Z,0.53
2023-03-05T05:56:09.596Z,0.62
2023-03-05T05:58:39.001Z,0.61
2023-03-05T06:01:18.853Z,0.71
2023-03-05T06:03:47.211Z,0.70
2023-03-05T06:06:17.664Z,0.68
2023-03-05T06:08:45.260Z,0.64
2023-03-05T06:11:13.104Z,0.70
2023-03-05T06:13:41.051Z,0.74
2023-03-05T06:16:14.557Z,0.79
2023-03-05T06:18:43.184Z,0.72
2023-03-05T06:21:16.388Z,0.73
2023-03-05T06:23:45.274Z,0.79
2023-03-05T06:26:15.404Z,0.78
2023-03-05T06:28:43.188Z,0.76
2023-03-05T06:31:14.474Z,0.89
2023-03-05T06:33:42.709Z,0.88
2023-03-05T06:36:13.232Z,0.84
2023-03-05T06:38:42.154Z,0.83
2023-03-05T06:41:12.297Z,0.87
2023-03-05T06:43:42.017Z,0.78
2023-03-05T06:46:32.699Z,0.74
2023-03-05T06:49:02.653Z,0.68
2023-03-05T06:51:34.151Z,0.69
2023-03-05T06:54:05.046Z,0.70
2023-03-05T06:56:35.493Z,0.72
2023-03-05T06:59:03.497Z,0.74
2023-03-05T07:01:31.658Z,0.82
2023-03-05T07:04:00.784Z,0.77
2023-03-05T07:06:33.420Z,0.77
2023-03-05T07:09:01.905Z,0.79
2023-03-05T07:11:31.506Z,0.90
2023-03-05T07:13:59.828Z,0.93
2023-03-05T07:16:31.056Z,1.00
2023-03-05T07:19:01.025Z,0.88
2023-03-05T07:21:31.065Z,0.77
2023-03-05T07:24:01.823Z,0.73
2023-03-05T07:26:31.078Z,0.72
2023-03-05T07:28:59.367Z,0.65
2023-03-05T07:31:31.165Z,0.66
2023-03-05T07:34:02.355Z,0.72
2023-03-05T07:36:31.192Z,0.61
2023-03-05T07:38:59.176Z,0.56
2023-03-05T07:41:27.820Z,0.58
2023-03-05T07:43:56.169Z,0.54
2023-03-05T07:46:27.449Z,0.57
2023-03-05T07:48:56.280Z,0.58
2023-03-05T07:51:25.797Z,0.63
2023-03-05T07:53:55.563Z,0.71
2023-03-05T07:56:35.651Z,0.82
2023-03-05T07:59:12.913Z,0.91
2023-03-05T08:01:41.503Z,0.82
2023-03-05T08:04:11.275Z,0.81
2023-03-05T08:06:41.165Z,0.91
2023-03-05T08:09:09.111Z,0.95
2023-03-05T08:11:37.160Z,0.98
2023-03-05T08:14:05.217Z,0.98
2023-03-05T08:16:33.074Z,1.08
2023-03-05T08:19:02.160Z,1.16
2023-03-05T08:21:35.661Z,1.23
2023-03-05T08:24:07.285Z,1.30
2023-03-05T08:26:41.335Z,1.42
2023-03-05T08:29:10.457Z,1.44
2023-03-05T08:31:39.063Z,1.37
2023-03-05T08:34:07.622Z,1.35
2023-03-05T08:36:35.689Z,1.33
2023-03-05T08:39:04.236Z,1.32
2023-03-05T08:41:32.105Z,1.33
2023-03-05T08:44:00.410Z,1.33
2023-03-05T08:46:28.572Z,1.40
2023-03-05T08:48:56.557Z,1.46
2023-03-05T08:51:26.158Z,1.47
2023-03-05T08:53:55.984Z,1.45
2023-03-05T08:56:23.778Z,1.45
2023-03-05T08:58:53.019Z,1.39
2023-03-05T09:01:21.179Z,1.36
2023-03-05T09:03:49.322Z,1.33
2023-03-05T09:06:17.509Z,1.42
2023-03-05T09:08:45.734Z,1.60
2023-03-05T09:11:18.122Z,1.63
2023-03-05T09:13:46.058Z,1.68
2023-03-05T09:16:17.678Z,1.83
2023-03-05T09:18:51.372Z,2.01
2023-03-05T09:21:19.524Z,1.98
2023-03-05T09:23:47.809Z,1.86
2023-03-05T09:26:22.153Z,1.88
2023-03-05T09:28:50.019Z,1.82
2023-03-05T09:31:20.736Z,1.79
2023-03-05T09:33:49.739Z,1.79
2023-03-05T09:36:29.302Z,1.77
2023-03-05T09:38:57.221Z,1.76
2023-03-05T09:41:41.166Z,1.83
2023-03-05T09:44:42.152Z,1.89
2023-03-05T09:47:10.333Z,1.86
2023-03-05T09:50:17.288Z,1.83
2023-03-05T09:52:57.354Z,1.79
2023-03-05T09:55:36.569Z,1.74
2023-03-05T09:58:11.399Z,1.62
2023-03-05T10:00:48.104Z,1.64
2023-03-05T10:03:27.444Z,1.87
2023-03-05T10:06:22.653Z,2.12
2023-03-05T10:09:24.764Z,2.46
2023-03-05T10:12:23.489Z,2.47
2023-03-05T10:14:51.745Z,2.70
2023-03-05T10:17:39.143Z,2.95
2023-03-05T10:20:27.644Z,3.24
2023-03-05T10:23:14.423Z,3.03
2023-03-05T10:26:00.118Z,2.88
2023-03-05T10:28:58.126Z,2.88
2023-03-05T10:32:04.950Z,2.94
2023-03-05T10:34:57.526Z,2.83
2023-03-05T10:37:53.662Z,2.73
2023-03-05T10:40:28.187Z,2.78
2023-03-05T10:43:05.096Z,2.77
2023-03-05T10:45:43.524Z,2.71
2023-03-05T10:48:38.309Z,2.60
2023-03-05T10:51:23.401Z,2.65
2023-03-05T10:54:06.827Z,2.59
2023-03-05T10:56:34.950Z,2.39
2023-03-05T10:59:05.388Z,2.29
2023-03-05T11:01:35.021Z,2.24
2023-03-05T11:04:06.144Z,2.19
2023-03-05T11:06:42.598Z,2.11
2023-03-05T11:09:18.274Z,1.98
2023-03-05T11:12:07.131Z,1.94
2023-03-05T11:14:38.810Z,1.82
2023-03-05T11:17:31.851Z,1.67
2023-03-05T11:20:27.598Z,1.55
2023-03-05T11:23:08.612Z,1.45
2023-03-05T11:26:01.825Z,1.23
2023-03-05T11:28:42.615Z,1.06
2023-03-05T11:31:16.262Z,0.99
2023-03-05T11:34:12.078Z,1.00
2023-03-05T11:36:42.757Z,0.98
2023-03-05T11:39:22.586Z,1.10
2023-03-05T11:41:57.556Z,1.21
2023-03-05T11:44:35.120Z,1.35
2023-03-05T11:47:33.077Z,1.48
2023-03-05T11:50:24.060Z,1.67
2023-03-05T11:52:57.342Z,1.89
2023-03-05T11:55:34.779Z,1.96
2023-03-05T11:58:17.771Z,1.93
2023-03-05T12:00:48.806Z,1.77
2023-03-05T12:03:24.985Z,1.67
2023-03-05T12:06:20.906Z,1.62
2023-03-05T12:08:54.454Z,1.53
2023-03-05T12:11:29.269Z,1.52
2023-03-05T12:14:06.368Z,1.40
2023-03-05T12:16:45.191Z,1.34
2023-03-05T12:19:32.985Z,1.47
2023-03-05T12:22:06.370Z,1.60
2023-03-05T12:24:36.556Z,1.59
2023-03-05T12:27:04.758Z,1.66
2023-03-05T12:29:46.341Z,1.74
2023-03-05T12:32:23.313Z,1.82
2023-03-05T12:35:01.269Z,1.79
2023-03-05T12:37:31.872Z,1.77
2023-03-05T12:40:01.160Z,1.82
2023-03-05T12:42:29.566Z,1.79
2023-03-05T12:45:25.719Z,1.80
2023-03-05T12:47:56.399Z,1.72
2023-03-05T12:50:29.460Z,1.64
2023-03-05T12:53:16.420Z,1.47
2023-03-05T12:55:58.175Z,1.30
2023-03-05T12:58:56.229Z,1.17
2023-03-05T13:01:34.390Z,1.10
2023-03-05T13:04:20.147Z,1.12
2023-03-05T13:06:59.471Z,1.05
2023-03-05T13:09:31.716Z,1.03
2023-03-05T13:12:01.048Z,1.06
2023-03-05T13:14:55.685Z,1.07
2023-03-05T13:17:36.169Z,1.02
2023-03-05T13:20:39.825Z,0.94
2023-03-05T13:23:21.597Z,0.95
2023-03-05T13:26:01.584Z,0.98
2023-03-05T13:28:31.446Z,1.03
2023-03-05T13:31:16.371Z,1.07
2023-03-05T13:33:58.553Z,1.11
2023-03-05T13:36:28.020Z,1.14
2023-03-05T13:38:56.341Z,1.11
2023-03-05T13:41:28.694Z,1.14
2023-03-05T13:44:00.149Z,1.09
2023-03-05T13:46:41.168Z,1.08
2023-03-05T13:49:24.708Z,1.03
2023-03-05T13:51:58.383Z,0.88
2023-03-05T13:54:28.760Z,0.80
2023-03-05T13:56:58.859Z,0.80
2023-03-05T13:59:32.301Z,0.79
2023-03-05T14:02:06.040Z,0.80
2023-03-05T14:04:41.464Z,0.77
2023-03-05T14:07:28.072Z,0.72
2023-03-05T14:10:00.426Z,0.67
2023-03-05T14:12:37.205Z,0.60
2023-03-05T14:15:28.986Z,0.60
2023-03-05T14:18:12.339Z,0.65
2023-03-05T14:20:59.597Z,0.62
2023-03-05T14:23:46.168Z,0.63
2023-03-05T14:26:35.068Z,0.62
2023-03-05T14:29:13.761Z,0.60
2023-03-05T14:31:50.971Z,0.64
2023-03-05T14:34:42.855Z,0.66
2023-03-05T14:37:30.888Z,0.74
2023-03-05T14:40:05.670Z,0.69
2023-03-05T14:42:38.747Z,0.67
2023-03-05T14:45:16.030Z,0.67
2023-03-05T14:47:44.761Z,0.62
2023-03-05T14:50:21.720Z,0.59
2023-03-05T14:52:58.945Z,0.52
2023-03-05T14:55:31.872Z,0.49
2023-03-05T14:58:19.155Z,0.55
2023-03-05T15:00:50.676Z,0.49
2023-03-05T15:03:20.665Z,0.49
2023-03-05T15:05:51.187Z,0.47
2023-03-05T15:08:29.288Z,0.45
2023-03-05T15:10:58.409Z,0.41
2023-03-05T15:13:26.892Z,0.45
2023-03-05T15:15:55.471Z,0.44
2023-03-05T15:18:23.959Z,0.49
2023-03-05T15:20:53.433Z,0.49
2023-03-05T15:23:21.621Z,0.47
2023-03-05T15:25:51.478Z,0.38
2023-03-05T15:28:19.657Z,0.32
2023-03-05T15:30:51.746Z,0.30
2023-03-05T15:33:20.300Z,0.28
2023-03-05T15:35:48.451Z,0.28
2023-03-05T15:38:19.839Z,0.24
2023-03-05T15:40:49.034Z,0.23
2023-03-05T15:43:18.958Z,0.23
2023-03-05T15:45:48.238Z,0.19
2023-03-05T15:48:16.399Z,0.19
2023-03-05T15:50:45.415Z,0.17
2023-03-05T15:53:18.205Z,0.20
2023-03-05T15:55:46.496Z,0.24
2023-03-05T15:58:17.104Z,0.22
2023-03-05T16:00:47.657Z,0.22
2023-03-05T16:03:19.378Z,0.21
2023-03-05T16:05:48.725Z,0.24
2023-03-05T16:08:17.553Z,0.25
2023-03-05T16:10:55.091Z,0.24
2023-03-05T16:13:33.010Z,0.22
2023-03-05T16:16:10.628Z,0.23
2023-03-05T16:19:11.350Z,0.22
2023-03-05T16:21:45.722Z,0.28
2023-03-05T16:24:16.895Z,0.29
2023-03-05T16:26:45.676Z,0.31
2023-03-05T16:29:15.235Z,0.27
2023-03-05T16:31:45.564Z,0.21
2023-03-05T16:34:16.714Z,0.09
2023-03-05T16:36:52.840Z,0.00
2023-03-05T16:39:22.464Z,-0.03
2023-03-05T16:42:04.068Z,0.00
2023-03-05T16:44:43.461Z,0.05
2023-03-05T16:47:27.229Z,0.15
2023-03-05T16:50:02.398Z,0.20
2023-03-05T16:53:16.693Z,0.22
2023-03-05T16:56:14.632Z,0.20
2023-03-05T16:59:02.548Z,0.27
2023-03-05T17:01:43.014Z,0.34
2023-03-05T17:04:19.459Z,0.36
2023-03-05T17:06:58.409Z,0.34
2023-03-05T17:09:35.184Z,0.27
2023-03-05T17:12:51.620Z,0.14
2023-03-05T17:15:37.457Z,0.02
2023-03-05T17:18:42.023Z,-0.03
2023-03-05T17:21:19.091Z,-0.04
2023-03-05T17:23:55.088Z,-0.10
2023-03-05T17:26:30.706Z,-0.13
2023-03-05T17:32:05.243Z,-0.14
2023-03-05T17:34:40.630Z,-0.16
2023-03-05T17:37:21.940Z,-0.19
2023-03-05T17:40:00.232Z,-0.21
2023-03-05T17:42:48.872Z,-0.25
2023-03-05T17:45:26.809Z,-0.28
2023-03-05T17:47:59.646Z,-0.38
2023-03-05T17:50:31.540Z,-0.45
2023-03-05T17:53:04.371Z,-0.47
2023-03-05T17:55:37.688Z,-0.51
2023-03-05T17:58:06.004Z,-0.48
2023-03-05T18:00:37.617Z,-0.47
2023-03-05T18:03:06.750Z,-0.41
2023-03-05T18:05:38.294Z,-0.38
2023-03-05T18:08:06.791Z,-0.30
2023-03-05T18:10:35.899Z,-0.24
2023-03-05T18:13:05.099Z,-0.14
2023-03-05T18:15:38.058Z,-0.10
2023-03-05T18:18:07.607Z,-0.05
2023-03-05T18:20:37.854Z,-0.01
2023-03-05T18:23:06.634Z,0.07
2023-03-05T18:25:37.148Z,0.12
2023-03-05T18:28:10.980Z,0.16
2023-03-05T18:30:43.336Z,0.19
2023-03-05T18:33:20.307Z,0.23
2023-03-05T18:35:52.585Z,0.28
2023-03-05T18:38:31.616Z,0.37
2023-03-05T18:41:03.566Z,0.41
2023-03-05T18:43:33.657Z,0.47
2023-03-05T18:46:05.166Z,0.49
2023-03-05T18:48:34.373Z,0.53
2023-03-05T18:51:03.197Z,0.62
2023-03-05T18:53:30.917Z,0.66
2023-03-05T18:56:01.447Z,0.68
2023-03-05T18:58:32.025Z,0.71
2023-03-05T19:01:00.474Z,0.74
2023-03-05T19:03:28.225Z,0.72
2023-03-05T19:05:56.110Z,0.69
2023-03-05T19:08:24.094Z,0.70
2023-03-05T19:10:52.803Z,0.66
2023-03-05T19:13:39.971Z,0.58
2023-03-05T19:16:12.621Z,0.56
2023-03-05T19:18:59.359Z,0.54
2023-03-05T19:21:27.100Z,0.52
2023-03-05T19:23:55.199Z,0.43
2023-03-05T19:26:22.675Z,0.40
2023-03-05T19:28:50.411Z,0.30
2023-03-05T19:31:18.960Z,0.14
2023-03-05T19:33:46.931Z,-0.04
2023-03-05T19:36:14.804Z,-0.17
2023-03-05T19:38:43.342Z,-0.22
2023-03-05T19:41:14.067Z,-0.19
2023-03-05T19:43:42.265Z,-0.18
2023-03-05T19:46:19.351Z,-0.20
2023-03-05T19:48:49.889Z,-0.22
2023-03-05T19:51:26.022Z,-0.35
2023-03-05T19:53:54.401Z,-0.45
2023-03-05T19:56:22.057Z,-0.51
2023-03-05T19:58:49.900Z,-0.50
2023-03-05T20:01:24.017Z,-0.43
2023-03-05T20:03:57.316Z,-0.30
2023-03-05T20:06:27.341Z,-0.20
2023-03-05T20:09:02.477Z,-0.05
2023-03-05T20:11:33.252Z,0.08
2023-03-05T20:14:00.978Z,0.14
2023-03-05T20:16:35.485Z,0.17
2023-03-05T20:19:07.720Z,0.17
2023-03-05T20:21:41.208Z,0.21
2023-03-05T20:24:12.711Z,0.25
2023-03-05T20:26:41.648Z,0.25
2023-03-05T20:29:10.221Z,0.27
2023-03-05T20:31:38.193Z,0.26
2023-03-05T20:34:08.084Z,0.26
2023-03-05T20:36:36.118Z,0.23
2023-03-05T20:39:05.578Z,0.17
2023-03-05T20:41:35.117Z,0.12
2023-03-05T20:44:03.653Z,0.13
2023-03-05T20:46:34.900Z,0.14
2023-03-05T20:49:04.123Z,0.17
2023-03-05T20:51:35.065Z,0.20
2023-03-05T20:54:08.799Z,0.19
2023-03-05T20:56:36.917Z,0.17
2023-03-05T20:59:08.976Z,0.14
2023-03-05T21:01:39.962Z,0.13
2023-03-05T21:04:09.913Z,0.09
2023-03-05T21:06:37.822Z,0.06
2023-03-05T21:09:05.605Z,0.04
2023-03-05T21:11:35.569Z,0.05
2023-03-05T21:14:03.189Z,0.05
2023-03-05T21:16:30.836Z,0.04
2023-03-05T21:18:58.521Z,0.04
2023-03-05T21:21:26.246Z,0.05
2023-03-05T21:23:53.827Z,0.07
2023-03-05T21:26:21.525Z,0.11
2023-03-05T21:28:49.279Z,0.16
2023-03-05T21:31:20.678Z,0.19
2023-03-05T21:33:48.635Z,0.21
2023-03-05T21:36:19.383Z,0.26
2023-03-05T21:38:49.015Z,0.28
2023-03-05T21:41:18.288Z,0.29
2023-03-05T21:43:46.298Z,0.26
2023-03-05T21:46:14.098Z,0.23
2023-03-05T21:48:41.678Z,0.23
2023-03-05T21:51:11.848Z,0.23
2023-03-05T21:53:39.671Z,0.24
2023-03-05T21:56:18.241Z,0.20
2023-03-05T21:58:46.991Z,0.17
2023-03-05T22:01:16.282Z,0.12
2023-03-05T22:03:44.212Z,0.12
2023-03-05T22:06:14.224Z,0.07
2023-03-05T22:08:42.011Z,0.10
2023-03-05T22:11:14.777Z,0.09
2023-03-05T22:13:43.176Z,0.05
2023-03-05T22:16:10.984Z,0.04
2023-03-05T22:18:38.795Z,0.02
2023-03-05T22:21:18.328Z,0.02
2023-03-05T22:23:46.359Z,0.00
2023-03-05T22:26:14.270Z,0.02
2023-03-05T22:28:42.700Z,-0.02
2023-03-05T22:31:10.581Z,-0.01
2023-03-05T22:33:38.282Z,0.00
2023-03-05T22:36:14.241Z,0.03
2023-03-05T22:38:42.943Z,-0.01
2023-03-05T22:41:13.138Z,0.03
2023-03-05T22:43:41.839Z,0.04
2023-03-05T22:46:16.598Z,0.03
2023-03-05T22:48:44.597Z,0.00
2023-03-05T22:51:13.390Z,-0.05
2023-03-05T22:53:41.373Z,-0.09
2023-03-05T22:56:11.521Z,-0.13
2023-03-05T22:58:39.759Z,-0.17
2023-03-05T23:01:18.353Z,-0.19
2023-03-05T23:03:47.159Z,-0.23
2023-03-05T23:06:14.687Z,-0.23
2023-03-05T23:08:42.513Z,-0.24
2023-03-05T23:11:11.753Z,-0.31
2023-03-05T23:13:40.922Z,-0.32
2023-03-05T23:16:09.653Z,-0.37
2023-03-05T23:18:37.607Z,-0.44
2023-03-05T23:21:05.601Z,-0.50
2023-03-05T23:23:33.365Z,-0.53
2023-03-05T23:26:01.402Z,-0.56
2023-03-05T23:28:28.891Z,-0.56
2023-03-05T23:30:57.957Z,-0.59
2023-03-05T23:33:25.934Z,-0.59
2023-03-05T23:35:56.276Z,-0.58
2023-03-05T23:38:25.321Z,-0.55
2023-03-05T23:40:54.896Z,-0.54
2023-03-05T23:43:26.784Z,-0.50
2023-03-05T23:45:57.672Z,-0.51
2023-03-05T23:48:26.881Z,-0.50
2023-03-05T23:50:54.918Z,-0.53
2023-03-05T23:53:26.586Z,-0.51
2023-03-05T23:55:55.169Z,-0.48
2023-03-05T23:58:22.957Z,-0.46
